sensor_id;sensor_type;location;lat;lon;timestamp;pressure;altitude;pressure_sealevel;temperature;humidity
13058;BME280;6595;49.578;11.012;2022-07-30T00:00:24;983.503;;;24.70;89.1
13058;BME280;6595;49.578;11.012;2022-07-30T00:02:24;983.499;;;24.69;89.1
13058;BME280;6595;49.578;11.012;2022-07-30T00:04:24;983.512;;;24.46;89.0
13058;BME280;6595;49.578;11.012;2022-07-30T00:06:24;983.425;;;24.81;89.1
13058;BME280;6595;49.578;11.012;2022-07-30T00:08:24;983.425;;;24.81;89.1
13058;BME280;6595;49.578;11.012;2022-07-30T00:10:24;983.364;;;24.64;89.1
13058;BME280;6595;49.578;11.012;2022-07-30T00:12:24;983.343;;;24.71;89.1
13058;BME280;6595;49.578;11.012;2022-07-30T00:14:25;983.326;;;24.89;89.1
13058;BME280;6595;49.578;11.012;2022-07-30T00:16:24;983.343;;;24.92;89.1
13058;BME280;6595;49.578;11.012;2022-07-30T00:18:24;983.371;;;25.10;89.1
13058;BME280;6595;49.578;11.012;2022-07-30T00:20:23;983.401;;;25.14;89.1
13058;BME280;6595;49.578;11.012;2022-07-30T00:22:24;983.400;;;24.94;89.1
13058;BME280;6595;49.578;11.012;2022-07-30T00:24:24;983.465;;;24.68;89.1
13058;BME280;6595;49.578;11.012;2022-07-30T00:26:24;983.466;;;24.74;89.1
13058;BME280;6595;49.578;11.012;2022-07-30T00:28:24;983.424;;;24.91;89.1
13058;BME280;6595;49.578;11.012;2022-07-30T00:30:24;983.467;;;25.06;89.1
13058;BME280;6595;49.578;11.012;2022-07-30T00:32:23;983.458;;;25.18;89.1
13058;BME280;6595;49.578;11.012;2022-07-30T00:34:24;983.423;;;25.03;89.1
13058;BME280;6595;49.578;11.012;2022-07-30T00:36:23;983.423;;;25.03;89.1
13058;BME280;6595;49.578;11.012;2022-07-30T00:38:23;983.452;;;25.12;89.1
13058;BME280;6595;49.578;11.012;2022-07-30T00:40:23;983.433;;;24.90;89.1
13058;BME280;6595;49.578;11.012;2022-07-30T00:42:36;983.444;;;25.07;89.1
13058;BME280;6595;49.578;11.012;2022-07-30T00:44:25;983.483;;;25.14;89.1
13058;BME280;6595;49.578;11.012;2022-07-30T00:46:24;983.498;;;24.86;89.1
13058;BME280;6595;49.578;11.012;2022-07-30T00:48:24;983.520;;;25.17;89.1
13058;BME280;6595;49.578;11.012;2022-07-30T00:50:24;983.520;;;25.17;89.1
13058;BME280;6595;49.578;11.012;2022-07-30T00:52:24;983.582;;;25.16;89.1
13058;BME280;6595;49.578;11.012;2022-07-30T00:54:24;983.578;;;25.26;89.1
13058;BME280;6595;49.578;11.012;2022-07-30T00:56:24;983.627;;;24.83;89.1
13058;BME280;6595;49.578;11.012;2022-07-30T00:58:24;983.602;;;25.18;89.1
13058;BME280;6595;49.578;11.012;2022-07-30T01:00:24;983.664;;;25.00;89.1
13058;BME280;6595;49.578;11.012;2022-07-30T01:02:24;983.702;;;25.03;89.1
13058;BME280;6595;49.578;11.012;2022-07-30T01:04:24;983.702;;;25.03;89.1
13058;BME280;6595;49.578;11.012;2022-07-30T01:06:24;983.747;;;25.24;89.1
13058;BME280;6595;49.578;11.012;2022-07-30T01:08:23;983.735;;;25.15;89.1
13058;BME280;6595;49.578;11.012;2022-07-30T01:10:24;983.701;;;25.04;89.1
13058;BME280;6595;49.578;11.012;2022-07-30T01:12:24;983.648;;;25.08;89.1
13058;BME280;6595;49.578;11.012;2022-07-30T01:14:24;983.689;;;25.07;89.1
13058;BME280;6595;49.578;11.012;2022-07-30T01:16:24;983.711;;;24.96;89.1
13058;BME280;6595;49.578;11.012;2022-07-30T01:18:36;983.671;;;25.12;89.1
13058;BME280;6595;49.578;11.012;2022-07-30T01:20:27;983.643;;;25.10;89.1
13058;BME280;6595;49.578;11.012;2022-07-30T01:22:34;983.676;;;25.24;89.1
13058;BME280;6595;49.578;11.012;2022-07-30T01:24:27;983.663;;;25.23;89.1
13058;BME280;6595;49.578;11.012;2022-07-30T01:26:24;983.645;;;25.41;89.1
13058;BME280;6595;49.578;11.012;2022-07-30T01:28:27;983.668;;;25.07;89.1
13058;BME280;6595;49.578;11.012;2022-07-30T01:30:26;983.652;;;25.03;89.1
13058;BME280;6595;49.578;11.012;2022-07-30T01:32:25;983.625;;;25.06;89.1
13058;BME280;6595;49.578;11.012;2022-07-30T01:34:27;983.684;;;25.00;89.1
13058;BME280;6595;49.578;11.012;2022-07-30T01:36:24;983.677;;;25.22;89.1
13058;BME280;6595;49.578;11.012;2022-07-30T01:38:26;983.642;;;25.19;89.1
13058;BME280;6595;49.578;11.012;2022-07-30T01:40:26;983.656;;;25.08;89.1
13058;BME280;6595;49.578;11.012;2022-07-30T01:42:25;983.646;;;25.30;89.1
13058;BME280;6595;49.578;11.012;2022-07-30T01:44:25;983.670;;;25.46;89.1
13058;BME280;6595;49.578;11.012;2022-07-30T01:46:25;983.670;;;25.46;89.1
13058;BME280;6595;49.578;11.012;2022-07-30T01:48:24;983.691;;;25.41;89.1
13058;BME280;6595;49.578;11.012;2022-07-30T01:50:24;983.707;;;25.32;89.1
13058;BME280;6595;49.578;11.012;2022-07-30T01:52:25;983.657;;;25.22;89.1
13058;BME280;6595;49.578;11.012;2022-07-30T01:54:26;983.685;;;25.16;89.1
13058;BME280;6595;49.578;11.012;2022-07-30T01:56:25;983.698;;;25.37;89.1
13058;BME280;6595;49.578;11.012;2022-07-30T01:58:26;983.713;;;25.21;89.1
13058;BME280;6595;49.578;11.012;2022-07-30T02:00:25;983.706;;;25.16;89.1
13058;BME280;6595;49.578;11.012;2022-07-30T02:02:24;983.706;;;25.16;89.1
13058;BME280;6595;49.578;11.012;2022-07-30T02:04:24;983.698;;;24.95;89.1
13058;BME280;6595;49.578;11.012;2022-07-30T02:06:33;983.669;;;25.18;89.1
13058;BME280;6595;49.578;11.012;2022-07-30T02:08:34;983.662;;;25.23;89.1
13058;BME280;6595;49.578;11.012;2022-07-30T02:10:30;983.695;;;24.89;89.1
13058;BME280;6595;49.578;11.012;2022-07-30T02:12:28;983.719;;;24.93;89.1
13058;BME280;6595;49.578;11.012;2022-07-30T02:14:28;983.709;;;24.88;89.1
13058;BME280;6595;49.578;11.012;2022-07-30T02:16:27;983.708;;;24.81;89.1
13058;BME280;6595;49.578;11.012;2022-07-30T02:18:30;983.691;;;24.80;89.1
13058;BME280;6595;49.578;11.012;2022-07-30T02:20:26;983.693;;;24.73;89.1
13058;BME280;6595;49.578;11.012;2022-07-30T02:22:25;983.670;;;24.76;89.1
13058;BME280;6595;49.578;11.012;2022-07-30T02:24:27;983.717;;;24.63;89.1
13058;BME280;6595;49.578;11.012;2022-07-30T02:26:25;983.741;;;24.61;89.1
13058;BME280;6595;49.578;11.012;2022-07-30T02:28:24;983.747;;;24.54;89.0
13058;BME280;6595;49.578;11.012;2022-07-30T02:30:26;983.798;;;24.40;89.0
13058;BME280;6595;49.578;11.012;2022-07-30T02:32:26;983.766;;;24.61;89.1
13058;BME280;6595;49.578;11.012;2022-07-30T02:34:24;983.766;;;24.62;89.1
13058;BME280;6595;49.578;11.012;2022-07-30T02:36:24;983.775;;;24.18;89.0
13058;BME280;6595;49.578;11.012;2022-07-30T02:38:26;983.763;;;23.93;89.0
13058;BME280;6595;49.578;11.012;2022-07-30T02:40:25;983.723;;;23.84;89.0
13058;BME280;6595;49.578;11.012;2022-07-30T02:42:24;983.618;;;24.57;89.1
13058;BME280;6595;49.578;11.012;2022-07-30T02:44:25;983.615;;;24.59;89.1
13058;BME280;6595;49.578;11.012;2022-07-30T02:46:24;983.613;;;24.51;89.1
13058;BME280;6595;49.578;11.012;2022-07-30T02:48:26;983.621;;;24.33;89.0
13058;BME280;6595;49.578;11.012;2022-07-30T02:50:25;983.655;;;23.79;89.0
13058;BME280;6595;49.578;11.012;2022-07-30T02:52:25;983.682;;;24.13;89.0
13058;BME280;6595;49.578;11.012;2022-07-30T02:54:24;983.682;;;24.13;89.0
13058;BME280;6595;49.578;11.012;2022-07-30T02:56:25;983.671;;;24.45;89.0
13058;BME280;6595;49.578;11.012;2022-07-30T02:58:25;983.727;;;24.04;89.0
13058;BME280;6595;49.578;11.012;2022-07-30T03:00:25;983.696;;;24.19;89.0
13058;BME280;6595;49.578;11.012;2022-07-30T03:02:24;983.652;;;23.90;89.0
13058;BME280;6595;49.578;11.012;2022-07-30T03:04:24;983.630;;;23.73;89.0
13058;BME280;6595;49.578;11.012;2022-07-30T03:06:24;983.667;;;23.81;89.0
13058;BME280;6595;49.578;11.012;2022-07-30T03:08:25;983.637;;;24.09;89.0
13058;BME280;6595;49.578;11.012;2022-07-30T03:10:25;983.654;;;24.09;89.0
13058;BME280;6595;49.578;11.012;2022-07-30T03:12:25;983.605;;;24.24;89.0
13058;BME280;6595;49.578;11.012;2022-07-30T03:14:24;983.605;;;24.24;89.0
13058;BME280;6595;49.578;11.012;2022-07-30T03:16:25;983.605;;;24.24;89.0
13058;BME280;6595;49.578;11.012;2022-07-30T03:18:27;983.439;;;24.70;89.1
13058;BME280;6595;49.578;11.012;2022-07-30T03:20:27;983.424;;;24.69;89.1
13058;BME280;6595;49.578;11.012;2022-07-30T03:22:25;983.550;;;24.19;89.0
13058;BME280;6595;49.578;11.012;2022-07-30T03:24:25;983.563;;;24.26;89.0
13058;BME280;6595;49.578;11.012;2022-07-30T03:26:24;983.608;;;24.64;89.1
13058;BME280;6595;49.578;11.012;2022-07-30T03:28:24;983.621;;;24.35;89.0
13058;BME280;6595;49.578;11.012;2022-07-30T03:30:25;983.657;;;24.40;89.0
13058;BME280;6595;49.578;11.012;2022-07-30T03:32:24;983.653;;;24.57;89.1
13058;BME280;6595;49.578;11.012;2022-07-30T03:34:24;983.691;;;24.00;89.0
13058;BME280;6595;49.578;11.012;2022-07-30T03:36:25;983.696;;;23.82;89.0
13058;BME280;6595;49.578;11.012;2022-07-30T03:38:24;983.742;;;23.98;89.0
13058;BME280;6595;49.578;11.012;2022-07-30T03:40:24;983.758;;;23.69;89.0
13058;BME280;6595;49.578;11.012;2022-07-30T03:42:24;983.789;;;24.33;89.0
13058;BME280;6595;49.578;11.012;2022-07-30T03:44:24;983.761;;;23.56;88.9
13058;BME280;6595;49.578;11.012;2022-07-30T03:46:25;983.767;;;24.23;89.0
13058;BME280;6595;49.578;11.012;2022-07-30T03:48:24;983.684;;;24.40;89.0
13058;BME280;6595;49.578;11.012;2022-07-30T03:50:24;983.681;;;24.48;89.0
13058;BME280;6595;49.578;11.012;2022-07-30T03:52:24;983.723;;;24.53;89.1
13058;BME280;6595;49.578;11.012;2022-07-30T03:54:24;983.751;;;24.38;89.0
13058;BME280;6595;49.578;11.012;2022-07-30T03:56:24;983.724;;;24.40;89.0
13058;BME280;6595;49.578;11.012;2022-07-30T03:58:24;983.705;;;24.79;89.1
13058;BME280;6595;49.578;11.012;2022-07-30T04:00:24;983.837;;;24.32;89.0
13058;BME280;6595;49.578;11.012;2022-07-30T04:02:23;983.878;;;24.22;89.0
13058;BME280;6595;49.578;11.012;2022-07-30T04:04:24;983.923;;;23.97;89.0
13058;BME280;6595;49.578;11.012;2022-07-30T04:06:24;983.946;;;24.37;89.0
13058;BME280;6595;49.578;11.012;2022-07-30T04:08:24;983.933;;;24.11;89.0
13058;BME280;6595;49.578;11.012;2022-07-30T04:10:24;983.929;;;24.25;89.0
13058;BME280;6595;49.578;11.012;2022-07-30T04:12:24;983.860;;;23.40;88.9
13058;BME280;6595;49.578;11.012;2022-07-30T04:14:24;983.906;;;23.27;88.9
13058;BME280;6595;49.578;11.012;2022-07-30T04:16:30;983.901;;;23.20;88.9
13058;BME280;6595;49.578;11.012;2022-07-30T04:18:26;983.978;;;23.06;88.9
13058;BME280;6595;49.578;11.012;2022-07-30T04:20:28;983.956;;;22.65;88.8
13058;BME280;6595;49.578;11.012;2022-07-30T04:22:29;983.981;;;23.14;88.9
13058;BME280;6595;49.578;11.012;2022-07-30T04:24:24;984.006;;;23.51;88.9
13058;BME280;6595;49.578;11.012;2022-07-30T04:26:24;984.062;;;22.97;88.9
13058;BME280;6595;49.578;11.012;2022-07-30T04:28:26;984.006;;;23.22;88.9
13058;BME280;6595;49.578;11.012;2022-07-30T04:30:25;984.086;;;22.61;88.9
13058;BME280;6595;49.578;11.012;2022-07-30T04:32:23;984.141;;;22.91;88.9
13058;BME280;6595;49.578;11.012;2022-07-30T04:34:24;984.113;;;23.32;88.9
13058;BME280;6595;49.578;11.012;2022-07-30T04:36:24;984.155;;;23.72;89.0
13058;BME280;6595;49.578;11.012;2022-07-30T04:38:24;984.155;;;23.72;89.0
13058;BME280;6595;49.578;11.012;2022-07-30T04:40:24;984.178;;;22.78;88.9
13058;BME280;6595;49.578;11.012;2022-07-30T04:42:25;984.194;;;22.11;88.8
13058;BME280;6595;49.578;11.012;2022-07-30T04:44:24;984.170;;;22.42;88.8
13058;BME280;6595;49.578;11.012;2022-07-30T04:46:24;984.210;;;23.78;89.0
13058;BME280;6595;49.578;11.012;2022-07-30T04:48:25;984.188;;;23.44;88.9
13058;BME280;6595;49.578;11.012;2022-07-30T04:50:27;984.226;;;23.16;88.9
13058;BME280;6595;49.578;11.012;2022-07-30T04:52:23;984.301;;;23.06;88.9
13058;BME280;6595;49.578;11.012;2022-07-30T04:54:24;984.300;;;23.32;88.9
13058;BME280;6595;49.578;11.012;2022-07-30T04:56:24;984.287;;;23.30;88.9
13058;BME280;6595;49.578;11.012;2022-07-30T04:58:24;984.376;;;23.86;89.0
13058;BME280;6595;49.578;11.012;2022-07-30T05:00:24;984.335;;;23.65;89.0
13058;BME280;6595;49.578;11.012;2022-07-30T05:02:27;984.322;;;23.38;88.9
13058;BME280;6595;49.578;11.012;2022-07-30T05:04:24;984.387;;;23.78;89.0
13058;BME280;6595;49.578;11.012;2022-07-30T05:06:24;984.387;;;23.78;89.0
13058;BME280;6595;49.578;11.012;2022-07-30T05:08:24;984.400;;;23.69;89.0
13058;BME280;6595;49.578;11.012;2022-07-30T05:10:24;984.528;;;23.32;88.9
13058;BME280;6595;49.578;11.012;2022-07-30T05:12:31;984.498;;;23.68;89.0
13058;BME280;6595;49.578;11.012;2022-07-30T05:14:25;984.520;;;23.50;88.9
13058;BME280;6595;49.578;11.012;2022-07-30T05:16:24;984.573;;;24.09;89.0
13058;BME280;6595;49.578;11.012;2022-07-30T05:18:24;984.591;;;23.95;89.0
13058;BME280;6595;49.578;11.012;2022-07-30T05:20:24;984.599;;;23.88;89.0
13058;BME280;6595;49.578;11.012;2022-07-30T05:22:26;984.628;;;23.86;89.0
13058;BME280;6595;49.578;11.012;2022-07-30T05:24:24;984.621;;;24.11;89.0
13058;BME280;6595;49.578;11.012;2022-07-30T05:26:24;984.570;;;23.76;89.0
13058;BME280;6595;49.578;11.012;2022-07-30T05:28:25;984.533;;;23.63;89.0
13058;BME280;6595;49.578;11.012;2022-07-30T05:30:25;984.500;;;23.57;88.9
13058;BME280;6595;49.578;11.012;2022-07-30T05:32:24;984.519;;;23.70;89.0
13058;BME280;6595;49.578;11.012;2022-07-30T05:34:23;984.564;;;24.11;89.0
13058;BME280;6595;49.578;11.012;2022-07-30T05:36:24;984.564;;;24.11;89.0
13058;BME280;6595;49.578;11.012;2022-07-30T05:38:24;984.639;;;24.24;89.0
13058;BME280;6595;49.578;11.012;2022-07-30T05:40:23;984.603;;;24.10;89.0
13058;BME280;6595;49.578;11.012;2022-07-30T05:42:24;984.629;;;24.56;89.0
13058;BME280;6595;49.578;11.012;2022-07-30T05:44:23;984.605;;;23.79;89.0
13058;BME280;6595;49.578;11.012;2022-07-30T05:46:23;984.616;;;24.02;89.0
13058;BME280;6595;49.578;11.012;2022-07-30T05:48:25;984.598;;;23.76;89.0
13058;BME280;6595;49.578;11.012;2022-07-30T05:50:24;984.622;;;23.82;89.0
13058;BME280;6595;49.578;11.012;2022-07-30T05:52:23;984.588;;;23.67;89.0
13058;BME280;6595;49.578;11.012;2022-07-30T05:54:24;984.597;;;23.95;89.0
13058;BME280;6595;49.578;11.012;2022-07-30T05:56:23;984.592;;;24.24;89.0
13058;BME280;6595;49.578;11.012;2022-07-30T05:58:23;984.592;;;24.24;89.0
13058;BME280;6595;49.578;11.012;2022-07-30T06:00:23;984.671;;;24.06;89.0
13058;BME280;6595;49.578;11.012;2022-07-30T06:02:23;984.696;;;24.19;89.0
13058;BME280;6595;49.578;11.012;2022-07-30T06:04:24;984.705;;;24.39;89.0
13058;BME280;6595;49.578;11.012;2022-07-30T06:06:24;984.716;;;24.85;89.1
13058;BME280;6595;49.578;11.012;2022-07-30T06:08:23;984.694;;;23.68;89.0
13058;BME280;6595;49.578;11.012;2022-07-30T06:10:23;984.694;;;23.68;89.0
13058;BME280;6595;49.578;11.012;2022-07-30T06:12:23;984.754;;;24.25;89.0
13058;BME280;6595;49.578;11.012;2022-07-30T06:14:23;984.718;;;24.25;89.0
13058;BME280;6595;49.578;11.012;2022-07-30T06:16:24;984.717;;;24.47;89.0
13058;BME280;6595;49.578;11.012;2022-07-30T06:18:23;984.716;;;24.40;89.0
13058;BME280;6595;49.578;11.012;2022-07-30T06:20:23;984.717;;;24.78;89.1
13058;BME280;6595;49.578;11.012;2022-07-30T06:22:23;984.690;;;24.88;89.1
13058;BME280;6595;49.578;11.012;2022-07-30T06:24:23;984.675;;;24.14;89.0
13058;BME280;6595;49.578;11.012;2022-07-30T06:26:24;984.665;;;24.05;89.0
13058;BME280;6595;49.578;11.012;2022-07-30T06:28:23;984.581;;;23.78;89.0
13058;BME280;6595;49.578;11.012;2022-07-30T06:30:23;984.654;;;24.11;89.0
13058;BME280;6595;49.578;11.012;2022-07-30T06:32:24;984.608;;;23.68;89.0
13058;BME280;6595;49.578;11.012;2022-07-30T06:34:24;984.614;;;23.37;88.9
13058;BME280;6595;49.578;11.012;2022-07-30T06:36:24;984.602;;;23.59;89.0
13058;BME280;6595;49.578;11.012;2022-07-30T06:38:24;984.682;;;24.26;89.0
13058;BME280;6595;49.578;11.012;2022-07-30T06:40:24;984.667;;;23.99;89.0
13058;BME280;6595;49.578;11.012;2022-07-30T06:42:24;984.694;;;24.74;89.1
13058;BME280;6595;49.578;11.012;2022-07-30T06:44:24;984.629;;;25.07;89.1
13058;BME280;6595;49.578;11.012;2022-07-30T06:46:23;984.618;;;25.34;89.1
13058;BME280;6595;49.578;11.012;2022-07-30T06:48:24;984.577;;;25.66;89.2
13058;BME280;6595;49.578;11.012;2022-07-30T06:50:24;984.587;;;25.68;89.2
13058;BME280;6595;49.578;11.012;2022-07-30T06:52:23;984.637;;;25.13;89.1
13058;BME280;6595;49.578;11.012;2022-07-30T06:54:24;984.651;;;25.24;89.1
13058;BME280;6595;49.578;11.012;2022-07-30T06:56:23;984.622;;;25.27;89.1
13058;BME280;6595;49.578;11.012;2022-07-30T06:58:24;984.622;;;25.27;89.1
13058;BME280;6595;49.578;11.012;2022-07-30T07:00:24;984.669;;;24.78;89.1
13058;BME280;6595;49.578;11.012;2022-07-30T07:02:23;984.659;;;25.02;89.1
13058;BME280;6595;49.578;11.012;2022-07-30T07:04:24;984.741;;;24.95;89.1
13058;BME280;6595;49.578;11.012;2022-07-30T07:06:24;984.752;;;24.33;89.0
13058;BME280;6595;49.578;11.012;2022-07-30T07:08:24;984.752;;;24.33;89.0
13058;BME280;6595;49.578;11.012;2022-07-30T07:10:24;984.730;;;25.60;89.2
13058;BME280;6595;49.578;11.012;2022-07-30T07:12:24;984.707;;;25.53;89.2
13058;BME280;6595;49.578;11.012;2022-07-30T07:14:23;984.700;;;25.55;89.2
13058;BME280;6595;49.578;11.012;2022-07-30T07:16:24;984.735;;;26.11;89.2
13058;BME280;6595;49.578;11.012;2022-07-30T07:18:24;984.704;;;25.86;89.2
13058;BME280;6595;49.578;11.012;2022-07-30T07:20:24;984.744;;;25.76;89.2
13058;BME280;6595;49.578;11.012;2022-07-30T07:22:24;984.850;;;25.32;89.1
13058;BME280;6595;49.578;11.012;2022-07-30T07:24:24;984.885;;;24.93;89.1
13058;BME280;6595;49.578;11.012;2022-07-30T07:26:24;984.849;;;25.36;89.1
13058;BME280;6595;49.578;11.012;2022-07-30T07:28:24;984.858;;;25.01;89.1
13058;BME280;6595;49.578;11.012;2022-07-30T07:30:24;984.853;;;25.72;89.2
13058;BME280;6595;49.578;11.012;2022-07-30T07:32:23;984.797;;;25.84;89.2
13058;BME280;6595;49.578;11.012;2022-07-30T07:34:24;984.815;;;25.58;89.2
13058;BME280;6595;49.578;11.012;2022-07-30T07:36:24;984.820;;;26.09;89.2
13058;BME280;6595;49.578;11.012;2022-07-30T07:38:24;984.866;;;26.74;89.3
13058;BME280;6595;49.578;11.012;2022-07-30T07:40:24;984.884;;;26.34;89.2
13058;BME280;6595;49.578;11.012;2022-07-30T07:42:24;984.946;;;26.85;89.3
13058;BME280;6595;49.578;11.012;2022-07-30T07:44:23;984.986;;;25.50;89.2
13058;BME280;6595;49.578;11.012;2022-07-30T07:46:24;985.008;;;24.86;89.1
13058;BME280;6595;49.578;11.012;2022-07-30T07:48:24;984.955;;;25.55;89.2
13058;BME280;6595;49.578;11.012;2022-07-30T07:50:23;984.898;;;25.85;89.2
13058;BME280;6595;49.578;11.012;2022-07-30T07:52:23;984.894;;;26.23;89.2
13058;BME280;6595;49.578;11.012;2022-07-30T07:54:23;984.916;;;26.46;89.2
13058;BME280;6595;49.578;11.012;2022-07-30T07:56:24;984.893;;;26.18;89.2
13058;BME280;6595;49.578;11.012;2022-07-30T07:58:23;984.902;;;26.46;89.2
13058;BME280;6595;49.578;11.012;2022-07-30T08:00:24;984.998;;;24.96;89.1
13058;BME280;6595;49.578;11.012;2022-07-30T08:02:24;984.947;;;25.07;89.1
13058;BME280;6595;49.578;11.012;2022-07-30T08:04:24;984.905;;;26.22;89.2
13058;BME280;6595;49.578;11.012;2022-07-30T08:06:24;984.933;;;26.43;89.3
13058;BME280;6595;49.578;11.012;2022-07-30T08:08:24;984.966;;;26.74;89.3
13058;BME280;6595;49.578;11.012;2022-07-30T08:10:25;984.973;;;26.37;89.2
13058;BME280;6595;49.578;11.012;2022-07-30T08:12:23;984.962;;;26.23;89.2
13058;BME280;6595;49.578;11.012;2022-07-30T08:14:23;984.994;;;25.67;89.2
13058;BME280;6595;49.578;11.012;2022-07-30T08:16:24;984.964;;;26.07;89.2
13058;BME280;6595;49.578;11.012;2022-07-30T08:18:24;984.974;;;26.04;89.2
13058;BME280;6595;49.578;11.012;2022-07-30T08:20:24;984.977;;;25.95;89.2
13058;BME280;6595;49.578;11.012;2022-07-30T08:22:24;985.074;;;25.20;89.1
13058;BME280;6595;49.578;11.012;2022-07-30T08:24:24;985.001;;;25.61;89.2
13058;BME280;6595;49.578;11.012;2022-07-30T08:26:24;984.969;;;25.99;89.2
13058;BME280;6595;49.578;11.012;2022-07-30T08:28:25;984.990;;;26.48;89.3
13058;BME280;6595;49.578;11.012;2022-07-30T08:30:23;985.021;;;26.23;89.2
13058;BME280;6595;49.578;11.012;2022-07-30T08:32:24;984.999;;;25.65;89.2
13058;BME280;6595;49.578;11.012;2022-07-30T08:34:24;985.013;;;25.74;89.2
13058;BME280;6595;49.578;11.012;2022-07-30T08:36:23;984.998;;;25.95;89.2
13058;BME280;6595;49.578;11.012;2022-07-30T08:38:24;985.125;;;26.72;89.3
13058;BME280;6595;49.578;11.012;2022-07-30T08:40:25;985.109;;;26.26;89.2
13058;BME280;6595;49.578;11.012;2022-07-30T08:42:24;985.110;;;26.18;89.2
13058;BME280;6595;49.578;11.012;2022-07-30T08:44:25;985.157;;;26.42;89.3
13058;BME280;6595;49.578;11.012;2022-07-30T08:46:24;985.135;;;26.20;89.2
13058;BME280;6595;49.578;11.012;2022-07-30T08:48:24;985.140;;;26.38;89.2
13058;BME280;6595;49.578;11.012;2022-07-30T08:50:24;985.186;;;26.57;89.3
13058;BME280;6595;49.578;11.012;2022-07-30T08:52:24;985.247;;;24.90;89.1
13058;BME280;6595;49.578;11.012;2022-07-30T08:54:24;985.312;;;24.96;89.1
13058;BME280;6595;49.578;11.012;2022-07-30T08:56:24;985.272;;;25.45;89.1
13058;BME280;6595;49.578;11.012;2022-07-30T08:58:28;985.272;;;25.45;89.1
13058;BME280;6595;49.578;11.012;2022-07-30T09:00:24;985.419;;;25.36;89.1
13058;BME280;6595;49.578;11.012;2022-07-30T09:02:24;985.385;;;25.97;89.2
13058;BME280;6595;49.578;11.012;2022-07-30T09:04:24;985.389;;;26.43;89.3
13058;BME280;6595;49.578;11.012;2022-07-30T09:06:24;985.411;;;26.29;89.2
13058;BME280;6595;49.578;11.012;2022-07-30T09:08:24;985.486;;;26.51;89.3
13058;BME280;6595;49.578;11.012;2022-07-30T09:10:24;985.468;;;26.22;89.2
13058;BME280;6595;49.578;11.012;2022-07-30T09:12:33;985.497;;;26.30;89.2
13058;BME280;6595;49.578;11.012;2022-07-30T09:14:24;985.479;;;26.32;89.2
13058;BME280;6595;49.578;11.012;2022-07-30T09:16:25;985.521;;;26.67;89.3
13058;BME280;6595;49.578;11.012;2022-07-30T09:18:27;985.513;;;26.63;89.3
13058;BME280;6595;49.578;11.012;2022-07-30T09:20:25;985.497;;;26.50;89.3
13058;BME280;6595;49.578;11.012;2022-07-30T09:22:39;985.515;;;26.86;89.3
13058;BME280;6595;49.578;11.012;2022-07-30T09:24:24;985.497;;;26.56;89.3
13058;BME280;6595;49.578;11.012;2022-07-30T09:26:24;985.485;;;26.67;89.3
13058;BME280;6595;49.578;11.012;2022-07-30T09:28:29;985.529;;;26.63;89.3
13058;BME280;6595;49.578;11.012;2022-07-30T09:30:24;985.572;;;25.82;89.2
13058;BME280;6595;49.578;11.012;2022-07-30T09:32:23;985.580;;;25.55;89.2
13058;BME280;6595;49.578;11.012;2022-07-30T09:34:27;985.540;;;26.66;89.3
13058;BME280;6595;49.578;11.012;2022-07-30T09:36:30;985.491;;;26.30;89.2
13058;BME280;6595;49.578;11.012;2022-07-30T09:38:25;985.571;;;25.29;89.1
13058;BME280;6595;49.578;11.012;2022-07-30T09:40:24;985.563;;;25.34;89.1
13058;BME280;6595;49.578;11.012;2022-07-30T09:42:26;985.579;;;25.84;89.2
13058;BME280;6595;49.578;11.012;2022-07-30T09:44:24;985.591;;;25.47;89.1
13058;BME280;6595;49.578;11.012;2022-07-30T09:46:39;985.526;;;25.57;89.2
13058;BME280;6595;49.578;11.012;2022-07-30T09:48:26;985.543;;;25.46;89.1
13058;BME280;6595;49.578;11.012;2022-07-30T09:50:26;985.468;;;26.71;89.3
13058;BME280;6595;49.578;11.012;2022-07-30T09:52:27;985.489;;;26.17;89.2
13058;BME280;6595;49.578;11.012;2022-07-30T09:54:24;985.519;;;25.47;89.1
13058;BME280;6595;49.578;11.012;2022-07-30T09:56:25;985.448;;;26.68;89.3
13058;BME280;6595;49.578;11.012;2022-07-30T09:58:37;985.411;;;26.81;89.3
13058;BME280;6595;49.578;11.012;2022-07-30T10:00:26;985.404;;;27.57;89.4
13058;BME280;6595;49.578;11.012;2022-07-30T10:02:31;985.407;;;28.39;89.5
13058;BME280;6595;49.578;11.012;2022-07-30T10:04:25;985.462;;;27.42;89.4
13058;BME280;6595;49.578;11.012;2022-07-30T10:06:31;985.454;;;27.21;89.3
13058;BME280;6595;49.578;11.012;2022-07-30T10:08:37;985.462;;;27.46;89.4
13058;BME280;6595;49.578;11.012;2022-07-30T10:10:26;985.424;;;27.35;89.4
13058;BME280;6595;49.578;11.012;2022-07-30T10:12:24;985.424;;;27.35;89.4
13058;BME280;6595;49.578;11.012;2022-07-30T10:14:27;985.390;;;27.70;89.4
13058;BME280;6595;49.578;11.012;2022-07-30T10:16:25;985.418;;;27.60;89.4
13058;BME280;6595;49.578;11.012;2022-07-30T10:18:24;985.498;;;27.02;89.3
13058;BME280;6595;49.578;11.012;2022-07-30T10:20:24;985.481;;;27.02;89.3
13058;BME280;6595;49.578;11.012;2022-07-30T10:22:24;985.457;;;27.97;89.4
13058;BME280;6595;49.578;11.012;2022-07-30T10:24:24;985.417;;;27.07;89.3
13058;BME280;6595;49.578;11.012;2022-07-30T10:26:24;985.416;;;27.95;89.4
13058;BME280;6595;49.578;11.012;2022-07-30T10:28:25;985.397;;;27.18;89.3
13058;BME280;6595;49.578;11.012;2022-07-30T10:30:25;985.414;;;26.85;89.3
13058;BME280;6595;49.578;11.012;2022-07-30T10:32:25;985.390;;;27.34;89.4
13058;BME280;6595;49.578;11.012;2022-07-30T10:34:24;985.405;;;27.47;89.4
13058;BME280;6595;49.578;11.012;2022-07-30T10:36:24;985.393;;;26.83;89.3
13058;BME280;6595;49.578;11.012;2022-07-30T10:38:29;985.373;;;27.48;89.4
13058;BME280;6595;49.578;11.012;2022-07-30T10:40:27;985.303;;;27.82;89.4
13058;BME280;6595;49.578;11.012;2022-07-30T10:42:38;985.329;;;28.18;89.4
13058;BME280;6595;49.578;11.012;2022-07-30T10:44:39;985.315;;;28.76;89.5
13058;BME280;6595;49.578;11.012;2022-07-30T10:46:32;985.242;;;28.70;89.5
13058;BME280;6595;49.578;11.012;2022-07-30T10:48:24;985.213;;;29.54;89.6
13058;BME280;6595;49.578;11.012;2022-07-30T10:50:25;985.144;;;29.61;89.6
13058;BME280;6595;49.578;11.012;2022-07-30T10:52:41;985.236;;;29.31;89.6